Time,TemperatureF,DewpointF,PressureIn,WindDirection,WindDirectionDegrees,WindSpeedMPH,WindSpeedGustMPH,Humidity,HourlyPrecipIn,Conditions,Clouds,dailyrainin,SoftwareType,DateUTC
2013-06-27 00:01:00,70.0,68.0,28.87,NW,315,0.0,0.0,92,0.17,,,1.79,,2013-06-27 04:01:00,
2013-06-27 00:11:00,70.0,68.0,28.87,NW,315,0.0,0.0,92,0.17,,,1.79,,2013-06-27 04:11:00,
2013-06-27 00:32:00,70.0,68.0,28.87,NW,315,0.0,0.0,93,0.17,,,1.79,,2013-06-27 04:32:00,
2013-06-27 00:42:00,70.0,68.0,28.87,NW,315,0.0,0.0,95,0.00,,,1.24,,2013-06-27 04:42:00,
2013-06-27 01:02:00,70.0,68.0,28.87,NW,315,0.0,0.0,95,0.00,,,1.24,,2013-06-27 05:02:00,
2013-06-27 01:12:00,69.0,68.0,28.87,NW,315,0.0,0.0,96,0.00,,,1.24,,2013-06-27 05:12:00,
2013-06-27 01:32:00,69.0,68.0,28.87,West,272,0.0,3.0,96,0.00,,,1.24,,2013-06-27 05:32:00,
2013-06-27 01:53:00,68.0,67.0,28.87,WNW,292,0.0,3.0,95,0.00,,,1.20,,2013-06-27 05:53:00,
2013-06-27 02:01:00,68.0,67.0,28.87,WNW,292,0.0,0.0,95,0.00,,,1.20,,2013-06-27 06:01:00,
2013-06-27 02:12:00,68.0,67.0,28.87,WNW,292,0.0,0.0,95,0.00,,,1.20,,2013-06-27 06:12:00,
2013-06-27 02:34:00,68.0,67.0,28.84,WNW,292,0.0,1.0,95,0.00,,,1.20,,2013-06-27 06:34:00,
2013-06-27 02:43:00,68.0,67.0,28.84,WNW,292,0.0,0.0,96,0.00,,,1.20,,2013-06-27 06:43:00,
2013-06-27 02:53:00,68.0,67.0,28.84,WNW,292,0.0,0.0,96,0.00,,,1.20,,2013-06-27 06:53:00,
2013-06-27 03:02:00,68.0,67.0,28.84,WNW,292,0.0,0.0,96,0.00,,,0.58,,2013-06-27 07:02:00,
2013-06-27 03:12:00,68.0,67.0,28.84,WNW,292,0.0,0.0,96,0.04,,,0.58,,2013-06-27 07:12:00,
2013-06-27 03:22:00,68.0,67.0,28.84,WNW,292,0.0,0.0,96,0.04,,,0.58,,2013-06-27 07:22:00,
2013-06-27 03:33:00,68.0,67.0,28.84,WNW,292,0.0,0.0,97,0.04,,,0.58,,2013-06-27 07:33:00,
2013-06-27 03:42:00,68.0,67.0,28.84,WNW,292,0.0,0.0,97,0.04,,,0.58,,2013-06-27 07:42:00,
2013-06-27 03:52:00,68.0,67.0,28.84,WNW,292,0.0,0.0,98,0.00,,,0.46,,2013-06-27 07:52:00,
2013-06-27 04:01:00,68.0,67.0,28.84,WNW,292,0.0,0.0,98,0.00,,,0.46,,2013-06-27 08:01:00,
2013-06-27 04:11:00,68.0,67.0,28.84,WNW,292,0.0,0.0,97,0.04,,,0.46,,2013-06-27 08:11:00,
2013-06-27 04:34:00,68.0,67.0,28.84,WNW,292,0.0,0.0,98,0.08,,,0.46,,2013-06-27 08:34:00,
2013-06-27 04:43:00,68.0,67.0,28.84,WNW,292,0.0,0.0,98,0.08,,,0.46,,2013-06-27 08:43:00,
2013-06-27 04:52:00,68.0,67.0,28.84,WNW,292,0.0,0.0,98,0.13,,,0.46,,2013-06-27 08:52:00,
2013-06-27 05:02:00,68.0,67.0,28.81,WNW,292,0.0,0.0,98,0.00,,,0.46,,2013-06-27 09:02:00,
2013-06-27 05:11:00,68.0,67.0,28.82,WNW,292,0.0,0.0,98,0.00,,,0.46,,2013-06-27 09:11:00,
2013-06-27 05:22:00,68.0,67.0,28.82,WNW,292,0.0,0.0,98,0.00,,,0.46,,2013-06-27 09:22:00,
2013-06-27 05:34:00,68.0,67.0,28.82,WNW,292,0.0,0.0,98,0.04,,,0.46,,2013-06-27 09:34:00,
2013-06-27 05:43:00,68.0,67.0,28.82,WNW,292,0.0,0.0,98,0.04,,,0.46,,2013-06-27 09:43:00,
2013-06-27 05:53:00,67.0,66.0,28.82,WNW,292,0.0,0.0,98,0.08,,,0.46,,2013-06-27 09:53:00,
2013-06-27 06:01:00,67.0,66.0,28.82,WNW,292,0.0,0.0,98,0.00,,,0.50,,2013-06-27 10:01:00,
2013-06-27 06:11:00,68.0,67.0,28.81,WNW,292,0.0,0.0,98,0.04,,,0.50,,2013-06-27 10:11:00,
2013-06-27 06:22:00,67.0,66.0,28.81,WNW,292,0.0,0.0,98,0.04,,,0.50,,2013-06-27 10:22:00,
2013-06-27 06:32:00,68.0,67.0,28.81,WNW,292,0.0,0.0,98,0.04,,,0.50,,2013-06-27 10:32:00,
2013-06-27 07:11:00,68.0,67.0,28.81,WNW,292,0.0,0.0,98,0.00,,,0.54,,2013-06-27 11:11:00,
2013-06-27 07:22:00,68.0,67.0,28.81,WNW,292,0.0,0.0,98,0.00,,,0.54,,2013-06-27 11:22:00,
2013-06-27 07:33:00,68.0,67.0,28.81,WNW,292,0.0,0.0,98,0.00,,,0.54,,2013-06-27 11:33:00,
2013-06-27 07:43:00,68.0,67.0,28.81,WNW,292,0.0,0.0,98,0.00,,,0.54,,2013-06-27 11:43:00,
2013-06-27 08:11:00,68.0,67.0,28.81,WNW,292,0.0,0.0,98,0.00,,,0.50,,2013-06-27 12:11:00,
2013-06-27 08:22:00,69.0,68.0,28.81,WNW,292,0.0,0.0,98,0.00,,,0.50,,2013-06-27 12:22:00,
2013-06-27 08:34:00,69.0,68.0,28.81,WNW,292,0.0,0.0,98,0.00,,,0.50,,2013-06-27 12:34:00,
2013-06-27 08:42:00,70.0,69.0,28.81,WNW,292,0.0,0.0,98,0.00,,,0.50,,2013-06-27 12:42:00,
2013-06-27 09:01:00,70.0,69.0,28.81,WNW,292,0.0,0.0,98,0.00,,,0.50,,2013-06-27 13:01:00,
2013-06-27 09:11:00,70.0,69.0,28.81,WNW,292,1.0,3.0,98,0.00,,,0.50,,2013-06-27 13:11:00,
2013-06-27 09:22:00,70.0,69.0,28.81,NW,315,0.0,2.0,97,0.00,,,0.50,,2013-06-27 13:22:00,
2013-06-27 09:34:00,70.0,69.0,28.81,WNW,292,1.0,2.0,97,0.00,,,0.50,,2013-06-27 13:34:00,
2013-06-27 09:43:00,70.0,69.0,28.81,WNW,292,0.0,3.0,96,0.00,,,0.50,,2013-06-27 13:43:00,
2013-06-27 09:52:00,70.0,69.0,28.81,WNW,292,0.0,2.0,96,0.00,,,0.50,,2013-06-27 13:52:00,
2013-06-27 10:02:00,70.0,69.0,28.81,West,270,0.0,1.0,96,0.00,,,0.50,,2013-06-27 14:02:00,
2013-06-27 10:11:00,71.0,70.0,28.81,West,270,0.0,2.0,96,0.00,,,0.50,,2013-06-27 14:11:00,
2013-06-27 10:43:00,75.0,71.0,28.81,West,270,0.0,1.0,87,0.00,,,0.50,,2013-06-27 14:43:00,
2013-06-27 11:22:00,76.0,68.0,28.80,NW,321,2.0,6.0,77,0.00,,,0.50,,2013-06-27 15:22:00,
2013-06-27 11:33:00,76.0,66.0,28.80,NNW,339,3.0,4.0,72,0.00,,,0.50,,2013-06-27 15:33:00,
2013-06-27 11:42:00,77.0,66.0,28.80,NW,306,2.0,5.0,70,0.00,,,0.50,,2013-06-27 15:42:00,
2013-06-27 12:02:00,78.0,67.0,28.77,NW,308,3.0,5.0,69,0.00,,,0.50,,2013-06-27 16:02:00,
2013-06-27 12:34:00,79.0,65.0,28.78,NW,315,2.0,4.0,62,0.00,,,0.50,,2013-06-27 16:34:00,
2013-06-27 12:43:00,79.0,65.0,28.78,NW,315,2.0,4.0,62,0.00,,,0.50,,2013-06-27 16:43:00,
2013-06-27 13:53:00,79.0,65.0,28.77,WNW,299,2.0,5.0,63,0.00,,,0.50,,2013-06-27 17:53:00,
2013-06-27 14:01:00,74.0,66.0,28.77,WNW,292,2.0,6.0,75,0.00,,,0.54,,2013-06-27 18:01:00,
2013-06-27 14:12:00,78.0,70.0,28.77,SSE,157,1.0,4.0,77,0.00,,,0.54,,2013-06-27 18:12:00,
2013-06-27 14:22:00,80.0,69.0,28.78,WNW,282,3.0,4.0,69,0.00,,,0.54,,2013-06-27 18:22:00,
2013-06-27 14:32:00,80.0,68.0,28.78,SW,217,2.0,5.0,66,0.00,,,0.54,,2013-06-27 18:32:00,
2013-06-27 14:44:00,79.0,67.0,28.78,WSW,238,2.0,5.0,67,0.00,,,0.54,,2013-06-27 18:44:00,
2013-06-27 14:52:00,79.0,67.0,28.78,WSW,238,2.0,5.0,67,0.00,,,0.54,,2013-06-27 18:52:00,
2013-06-27 15:01:00,80.0,66.0,28.78,NW,324,2.0,5.0,63,0.00,,,0.54,,2013-06-27 19:01:00,
2013-06-27 15:11:00,81.0,67.0,28.78,WNW,300,2.0,7.0,62,0.00,,,0.54,,2013-06-27 19:11:00,
2013-06-27 15:34:00,80.0,67.0,28.78,WNW,289,1.0,5.0,64,0.00,,,0.54,,2013-06-27 19:34:00,
2013-06-27 15:53:00,77.0,66.0,28.77,North,9,4.0,6.0,70,0.00,,,0.54,,2013-06-27 19:53:00,
2013-06-27 16:02:00,76.0,67.0,28.77,ENE,67,1.0,4.0,74,0.00,,,0.58,,2013-06-27 20:02:00,
2013-06-27 20:07:00,79.0,61.0,28.74,NNW,337,2.0,4.0,55,0.00,,,0.58,,2013-06-28 00:07:00,
2013-06-27 20:28:00,78.0,62.0,28.74,WNW,292,0.0,3.0,59,0.00,,,0.58,,2013-06-28 00:28:00,
2013-06-27 20:35:00,77.0,63.0,28.74,NW,315,0.0,3.0,61,0.00,,,0.58,,2013-06-28 00:35:00,
2013-06-27 20:45:00,77.0,64.0,28.74,West,269,1.0,3.0,64,0.00,,,0.58,,2013-06-28 00:45:00,
2013-06-27 20:54:00,77.0,64.0,28.74,West,269,1.0,3.0,64,0.00,,,0.58,,2013-06-28 00:54:00,
2013-06-27 21:08:00,76.0,64.0,28.74,WSW,247,0.0,0.0,66,0.00,,,0.58,,2013-06-28 01:08:00,
2013-06-27 21:14:00,75.0,63.0,28.74,WSW,247,0.0,0.0,67,0.00,,,0.58,,2013-06-28 01:14:00,
2013-06-27 21:25:00,75.0,63.0,28.74,WSW,247,0.0,0.0,67,0.00,,,0.58,,2013-06-28 01:25:00,
2013-06-27 21:56:00,74.0,65.0,28.74,North,0,1.0,3.0,73,0.00,,,0.58,,2013-06-28 01:56:00,
2013-06-27 22:07:00,74.0,66.0,28.74,North,0,0.0,2.0,75,0.00,,,0.58,,2013-06-28 02:07:00,
2013-06-27 22:49:00,71.0,67.0,28.74,West,270,0.0,4.0,87,0.08,,,0.58,,2013-06-28 02:49:00,
2013-06-27 23:07:00,71.0,68.0,28.74,West,270,0.0,0.0,89,0.00,,,0.62,,2013-06-28 03:07:00,
2013-06-27 23:14:00,70.0,67.0,28.74,West,270,0.0,0.0,90,0.00,,,0.62,,2013-06-28 03:14:00,
2013-06-27 23:27:00,70.0,67.0,28.74,West,270,0.0,0.0,90,0.00,,,0.62,,2013-06-28 03:27:00,
2013-06-27 23:37:00,70.0,67.0,28.74,South,180,0.0,0.0,91,0.00,,,0.62,,2013-06-28 03:37:00,
2013-06-27 23:44:00,70.0,68.0,28.71,WNW,292,0.0,1.0,92,0.00,,,0.62,,2013-06-28 03:44:00,
2013-06-27 23:55:00,70.0,68.0,28.71,WNW,292,0.0,0.0,92,0.00,,,0.62,,2013-06-28 03:55:00,